South Bend International Airport (SBN)


Airport Diagram
Current Weather/Forecast (VFR Conditions)
METAR KSBN 271254Z 21015KT 10SM BKN043 OVC060 M07/M14 A3011 RMK AO2 SLP213 T10721144
TAF KSBN 271140Z 2712/2812 20012G20KT P6SM OVC040 WS020/24040KT FM271500 22013G22KT P6SM BKN045 FM272200 27010KT P6SM BKN030 FM280100 30008KT 4SM -SHSN BR OVC022 TEMPO 2801/2805 2SM -SHSN OVC015 FM280700 02008KT P6SM BKN040

All Charts
General
Chart Name Download
AIRPORT DIAGRAM
TAKEOFF MINIMUMS
ALTERNATE MINIMUMS

Approaches
Chart Name Download
ILS OR LOC RWY 09R
ILS OR LOC RWY 27L
ILS RWY 27L (SA CAT I - II)
RNAV (GPS) RWY 09L
RNAV (GPS) RWY 09R
RNAV (GPS) RWY 18
RNAV (GPS) RWY 27L
RNAV (GPS) RWY 27R
RNAV (GPS) RWY 36
VOR RWY 18